sensor_id;sensor_type;location;lat;lon;timestamp;P1;durP1;ratioP1;P2;durP2;ratioP2
18568;SDS011;14780;48.316;-1.050;2023-05-28T00:02:08;8.90;;;4.80;;
18568;SDS011;14780;48.316;-1.050;2023-05-28T00:04:53;7.80;;;4.80;;
18568;SDS011;14780;48.316;-1.050;2023-05-28T00:07:37;10.30;;;5.20;;
18568;SDS011;14780;48.316;-1.050;2023-05-28T00:10:23;9.20;;;4.88;;
18568;SDS011;14780;48.316;-1.050;2023-05-28T00:13:08;8.57;;;4.80;;
18568;SDS011;14780;48.316;-1.050;2023-05-28T00:15:52;8.65;;;5.38;;
18568;SDS011;14780;48.316;-1.050;2023-05-28T00:18:37;7.53;;;4.65;;
18568;SDS011;14780;48.316;-1.050;2023-05-28T00:21:22;8.02;;;5.15;;
18568;SDS011;14780;48.316;-1.050;2023-05-28T00:24:07;8.05;;;5.00;;
18568;SDS011;14780;48.316;-1.050;2023-05-28T00:26:52;10.18;;;5.47;;
18568;SDS011;14780;48.316;-1.050;2023-05-28T00:29:36;10.52;;;4.95;;
18568;SDS011;14780;48.316;-1.050;2023-05-28T00:32:21;8.57;;;4.82;;
18568;SDS011;14780;48.316;-1.050;2023-05-28T00:35:05;8.50;;;4.72;;
18568;SDS011;14780;48.316;-1.050;2023-05-28T00:37:51;9.10;;;5.00;;
18568;SDS011;14780;48.316;-1.050;2023-05-28T00:40:36;8.93;;;4.82;;
18568;SDS011;14780;48.316;-1.050;2023-05-28T00:43:25;7.75;;;5.20;;
18568;SDS011;14780;48.316;-1.050;2023-05-28T00:46:10;12.18;;;4.93;;
18568;SDS011;14780;48.316;-1.050;2023-05-28T00:48:55;7.70;;;4.72;;
18568;SDS011;14780;48.316;-1.050;2023-05-28T00:51:40;9.48;;;5.00;;
18568;SDS011;14780;48.316;-1.050;2023-05-28T00:54:25;8.93;;;4.97;;
18568;SDS011;14780;48.316;-1.050;2023-05-28T00:57:11;6.72;;;4.43;;
18568;SDS011;14780;48.316;-1.050;2023-05-28T00:59:56;11.25;;;5.28;;
18568;SDS011;14780;48.316;-1.050;2023-05-28T01:02:45;8.48;;;4.28;;
18568;SDS011;14780;48.316;-1.050;2023-05-28T01:05:29;7.88;;;4.75;;
18568;SDS011;14780;48.316;-1.050;2023-05-28T01:08:18;7.85;;;4.53;;
18568;SDS011;14780;48.316;-1.050;2023-05-28T01:11:07;8.57;;;4.60;;
18568;SDS011;14780;48.316;-1.050;2023-05-28T01:13:57;11.40;;;4.80;;
18568;SDS011;14780;48.316;-1.050;2023-05-28T01:16:42;9.68;;;4.93;;
18568;SDS011;14780;48.316;-1.050;2023-05-28T01:19:28;8.77;;;4.70;;
18568;SDS011;14780;48.316;-1.050;2023-05-28T01:22:16;10.57;;;5.18;;
18568;SDS011;14780;48.316;-1.050;2023-05-28T01:25:05;7.70;;;4.53;;
18568;SDS011;14780;48.316;-1.050;2023-05-28T01:27:53;8.27;;;4.65;;
18568;SDS011;14780;48.316;-1.050;2023-05-28T01:30:38;9.57;;;4.43;;
18568;SDS011;14780;48.316;-1.050;2023-05-28T01:33:23;9.30;;;5.30;;
18568;SDS011;14780;48.316;-1.050;2023-05-28T01:36:09;8.35;;;4.28;;
18568;SDS011;14780;48.316;-1.050;2023-05-28T01:39:01;8.00;;;4.60;;
18568;SDS011;14780;48.316;-1.050;2023-05-28T01:41:47;7.47;;;4.63;;
18568;SDS011;14780;48.316;-1.050;2023-05-28T01:44:32;9.05;;;4.60;;
18568;SDS011;14780;48.316;-1.050;2023-05-28T01:47:18;7.57;;;4.80;;
18568;SDS011;14780;48.316;-1.050;2023-05-28T01:50:03;8.05;;;4.80;;
18568;SDS011;14780;48.316;-1.050;2023-05-28T01:52:49;10.43;;;4.95;;
18568;SDS011;14780;48.316;-1.050;2023-05-28T01:55:33;8.48;;;4.75;;
18568;SDS011;14780;48.316;-1.050;2023-05-28T01:58:18;8.07;;;4.57;;
18568;SDS011;14780;48.316;-1.050;2023-05-28T02:01:09;10.25;;;4.40;;
18568;SDS011;14780;48.316;-1.050;2023-05-28T02:04:12;9.43;;;4.95;;
18568;SDS011;14780;48.316;-1.050;2023-05-28T02:06:57;9.48;;;4.57;;
18568;SDS011;14780;48.316;-1.050;2023-05-28T02:09:42;7.15;;;4.53;;
18568;SDS011;14780;48.316;-1.050;2023-05-28T02:12:27;9.77;;;5.60;;
18568;SDS011;14780;48.316;-1.050;2023-05-28T02:15:12;7.75;;;4.38;;
18568;SDS011;14780;48.316;-1.050;2023-05-28T02:17:56;8.77;;;5.03;;
18568;SDS011;14780;48.316;-1.050;2023-05-28T02:20:41;11.35;;;5.15;;
18568;SDS011;14780;48.316;-1.050;2023-05-28T02:23:26;8.43;;;4.78;;
18568;SDS011;14780;48.316;-1.050;2023-05-28T02:26:11;7.18;;;4.43;;
18568;SDS011;14780;48.316;-1.050;2023-05-28T02:28:55;8.77;;;5.05;;
18568;SDS011;14780;48.316;-1.050;2023-05-28T02:31:40;9.25;;;4.60;;
18568;SDS011;14780;48.316;-1.050;2023-05-28T02:34:24;7.57;;;4.57;;
18568;SDS011;14780;48.316;-1.050;2023-05-28T02:37:09;8.45;;;4.50;;
18568;SDS011;14780;48.316;-1.050;2023-05-28T02:39:53;10.15;;;4.95;;
18568;SDS011;14780;48.316;-1.050;2023-05-28T02:42:39;8.18;;;4.60;;
18568;SDS011;14780;48.316;-1.050;2023-05-28T02:45:23;8.82;;;4.65;;
18568;SDS011;14780;48.316;-1.050;2023-05-28T02:48:08;10.80;;;5.63;;
18568;SDS011;14780;48.316;-1.050;2023-05-28T02:50:53;13.00;;;4.72;;
18568;SDS011;14780;48.316;-1.050;2023-05-28T02:53:38;8.25;;;4.97;;
18568;SDS011;14780;48.316;-1.050;2023-05-28T02:56:22;9.55;;;4.25;;
18568;SDS011;14780;48.316;-1.050;2023-05-28T02:59:07;7.25;;;4.55;;
18568;SDS011;14780;48.316;-1.050;2023-05-28T03:01:51;10.43;;;4.72;;
18568;SDS011;14780;48.316;-1.050;2023-05-28T03:04:36;7.35;;;4.30;;
18568;SDS011;14780;48.316;-1.050;2023-05-28T03:07:20;9.40;;;4.75;;
18568;SDS011;14780;48.316;-1.050;2023-05-28T03:10:05;8.13;;;4.75;;
18568;SDS011;14780;48.316;-1.050;2023-05-28T03:12:50;8.30;;;4.25;;
18568;SDS011;14780;48.316;-1.050;2023-05-28T03:15:35;8.77;;;4.95;;
18568;SDS011;14780;48.316;-1.050;2023-05-28T03:18:20;7.32;;;4.38;;
18568;SDS011;14780;48.316;-1.050;2023-05-28T03:21:04;9.35;;;4.65;;
18568;SDS011;14780;48.316;-1.050;2023-05-28T03:23:49;9.60;;;4.45;;
18568;SDS011;14780;48.316;-1.050;2023-05-28T03:26:34;8.98;;;5.00;;
18568;SDS011;14780;48.316;-1.050;2023-05-28T03:29:20;7.32;;;4.65;;
18568;SDS011;14780;48.316;-1.050;2023-05-28T03:32:04;8.95;;;5.10;;
18568;SDS011;14780;48.316;-1.050;2023-05-28T03:34:49;6.60;;;4.30;;
18568;SDS011;14780;48.316;-1.050;2023-05-28T03:37:34;8.88;;;4.75;;
18568;SDS011;14780;48.316;-1.050;2023-05-28T03:40:19;9.63;;;4.60;;
18568;SDS011;14780;48.316;-1.050;2023-05-28T03:43:04;8.05;;;4.95;;
18568;SDS011;14780;48.316;-1.050;2023-05-28T03:45:51;10.40;;;4.60;;
18568;SDS011;14780;48.316;-1.050;2023-05-28T03:48:36;8.65;;;4.85;;
18568;SDS011;14780;48.316;-1.050;2023-05-28T03:51:21;8.95;;;4.70;;
18568;SDS011;14780;48.316;-1.050;2023-05-28T03:54:07;10.07;;;4.82;;
18568;SDS011;14780;48.316;-1.050;2023-05-28T03:56:51;11.05;;;4.65;;
18568;SDS011;14780;48.316;-1.050;2023-05-28T03:59:36;9.02;;;4.75;;
18568;SDS011;14780;48.316;-1.050;2023-05-28T04:02:21;8.85;;;4.55;;
18568;SDS011;14780;48.316;-1.050;2023-05-28T04:05:06;8.88;;;4.50;;
18568;SDS011;14780;48.316;-1.050;2023-05-28T04:07:51;10.02;;;4.57;;
18568;SDS011;14780;48.316;-1.050;2023-05-28T04:10:36;8.57;;;5.00;;
18568;SDS011;14780;48.316;-1.050;2023-05-28T04:13:21;7.57;;;4.88;;
18568;SDS011;14780;48.316;-1.050;2023-05-28T04:16:06;10.20;;;4.55;;
18568;SDS011;14780;48.316;-1.050;2023-05-28T04:18:51;8.07;;;4.43;;
18568;SDS011;14780;48.316;-1.050;2023-05-28T04:21:36;8.27;;;4.45;;
18568;SDS011;14780;48.316;-1.050;2023-05-28T04:24:21;7.78;;;4.93;;
18568;SDS011;14780;48.316;-1.050;2023-05-28T04:27:06;8.40;;;4.63;;
18568;SDS011;14780;48.316;-1.050;2023-05-28T04:29:50;8.35;;;4.10;;
18568;SDS011;14780;48.316;-1.050;2023-05-28T04:32:35;9.35;;;4.63;;
18568;SDS011;14780;48.316;-1.050;2023-05-28T04:35:23;11.27;;;4.70;;
18568;SDS011;14780;48.316;-1.050;2023-05-28T04:38:07;7.15;;;4.25;;
18568;SDS011;14780;48.316;-1.050;2023-05-28T04:40:52;8.18;;;4.63;;
18568;SDS011;14780;48.316;-1.050;2023-05-28T04:43:37;7.93;;;4.63;;
18568;SDS011;14780;48.316;-1.050;2023-05-28T04:46:21;8.73;;;4.38;;
18568;SDS011;14780;48.316;-1.050;2023-05-28T04:49:09;7.72;;;4.28;;
18568;SDS011;14780;48.316;-1.050;2023-05-28T04:51:55;7.90;;;4.53;;
18568;SDS011;14780;48.316;-1.050;2023-05-28T04:54:40;8.45;;;5.05;;
18568;SDS011;14780;48.316;-1.050;2023-05-28T04:57:25;10.10;;;4.72;;
18568;SDS011;14780;48.316;-1.050;2023-05-28T05:00:11;12.00;;;4.60;;
18568;SDS011;14780;48.316;-1.050;2023-05-28T05:02:56;10.38;;;4.57;;
18568;SDS011;14780;48.316;-1.050;2023-05-28T05:05:41;9.25;;;4.20;;
18568;SDS011;14780;48.316;-1.050;2023-05-28T05:08:26;7.97;;;4.97;;
18568;SDS011;14780;48.316;-1.050;2023-05-28T05:11:10;6.75;;;4.65;;
18568;SDS011;14780;48.316;-1.050;2023-05-28T05:13:55;9.52;;;4.18;;
18568;SDS011;14780;48.316;-1.050;2023-05-28T05:16:40;8.55;;;4.32;;
18568;SDS011;14780;48.316;-1.050;2023-05-28T05:19:24;8.00;;;4.43;;
18568;SDS011;14780;48.316;-1.050;2023-05-28T05:22:10;8.85;;;4.53;;
18568;SDS011;14780;48.316;-1.050;2023-05-28T05:24:54;6.53;;;3.90;;
18568;SDS011;14780;48.316;-1.050;2023-05-28T05:27:39;7.28;;;4.13;;
18568;SDS011;14780;48.316;-1.050;2023-05-28T05:30:24;8.07;;;4.30;;
18568;SDS011;14780;48.316;-1.050;2023-05-28T05:33:09;9.65;;;4.72;;
18568;SDS011;14780;48.316;-1.050;2023-05-28T05:35:54;10.80;;;4.43;;
18568;SDS011;14780;48.316;-1.050;2023-05-28T05:38:38;7.82;;;4.35;;
18568;SDS011;14780;48.316;-1.050;2023-05-28T05:41:23;8.00;;;4.50;;
18568;SDS011;14780;48.316;-1.050;2023-05-28T05:44:08;7.80;;;4.20;;
18568;SDS011;14780;48.316;-1.050;2023-05-28T05:46:53;7.30;;;4.10;;
18568;SDS011;14780;48.316;-1.050;2023-05-28T05:49:38;6.63;;;4.10;;
18568;SDS011;14780;48.316;-1.050;2023-05-28T05:52:23;11.85;;;4.72;;
18568;SDS011;14780;48.316;-1.050;2023-05-28T05:55:08;6.75;;;4.18;;
18568;SDS011;14780;48.316;-1.050;2023-05-28T05:57:53;8.65;;;4.43;;
18568;SDS011;14780;48.316;-1.050;2023-05-28T06:00:40;6.97;;;4.03;;
18568;SDS011;14780;48.316;-1.050;2023-05-28T06:03:26;8.27;;;4.78;;
18568;SDS011;14780;48.316;-1.050;2023-05-28T06:06:11;7.53;;;4.35;;
18568;SDS011;14780;48.316;-1.050;2023-05-28T06:08:56;10.38;;;4.35;;
18568;SDS011;14780;48.316;-1.050;2023-05-28T06:11:41;9.55;;;4.30;;
18568;SDS011;14780;48.316;-1.050;2023-05-28T06:14:26;7.65;;;4.25;;
18568;SDS011;14780;48.316;-1.050;2023-05-28T06:17:11;8.07;;;4.40;;
18568;SDS011;14780;48.316;-1.050;2023-05-28T06:19:55;8.45;;;4.57;;
18568;SDS011;14780;48.316;-1.050;2023-05-28T06:22:42;7.65;;;4.30;;
18568;SDS011;14780;48.316;-1.050;2023-05-28T06:25:27;8.20;;;4.43;;
18568;SDS011;14780;48.316;-1.050;2023-05-28T06:28:11;7.03;;;3.88;;
18568;SDS011;14780;48.316;-1.050;2023-05-28T06:30:56;9.27;;;4.60;;
18568;SDS011;14780;48.316;-1.050;2023-05-28T06:33:41;8.15;;;4.15;;
18568;SDS011;14780;48.316;-1.050;2023-05-28T06:36:26;6.45;;;4.07;;
18568;SDS011;14780;48.316;-1.050;2023-05-28T06:39:11;7.65;;;4.20;;
18568;SDS011;14780;48.316;-1.050;2023-05-28T06:41:56;6.90;;;3.95;;
18568;SDS011;14780;48.316;-1.050;2023-05-28T06:44:41;5.47;;;3.72;;
18568;SDS011;14780;48.316;-1.050;2023-05-28T06:47:25;8.48;;;4.20;;
18568;SDS011;14780;48.316;-1.050;2023-05-28T06:50:11;7.88;;;4.75;;
18568;SDS011;14780;48.316;-1.050;2023-05-28T06:52:56;7.38;;;4.28;;
18568;SDS011;14780;48.316;-1.050;2023-05-28T06:55:41;6.57;;;4.13;;
18568;SDS011;14780;48.316;-1.050;2023-05-28T06:58:26;7.00;;;4.22;;
18568;SDS011;14780;48.316;-1.050;2023-05-28T07:01:11;8.88;;;4.68;;
18568;SDS011;14780;48.316;-1.050;2023-05-28T07:03:55;7.90;;;4.28;;
18568;SDS011;14780;48.316;-1.050;2023-05-28T07:06:40;6.90;;;4.18;;
18568;SDS011;14780;48.316;-1.050;2023-05-28T07:09:25;7.25;;;4.40;;
18568;SDS011;14780;48.316;-1.050;2023-05-28T07:12:10;7.15;;;4.07;;
18568;SDS011;14780;48.316;-1.050;2023-05-28T07:14:54;7.70;;;4.18;;
18568;SDS011;14780;48.316;-1.050;2023-05-28T07:17:39;7.50;;;4.18;;
18568;SDS011;14780;48.316;-1.050;2023-05-28T07:20:24;8.38;;;4.70;;
18568;SDS011;14780;48.316;-1.050;2023-05-28T07:23:09;9.13;;;4.55;;
18568;SDS011;14780;48.316;-1.050;2023-05-28T07:25:54;7.35;;;4.15;;
18568;SDS011;14780;48.316;-1.050;2023-05-28T07:28:40;6.43;;;4.10;;
18568;SDS011;14780;48.316;-1.050;2023-05-28T07:31:24;6.97;;;4.10;;
18568;SDS011;14780;48.316;-1.050;2023-05-28T07:34:09;10.77;;;4.97;;
18568;SDS011;14780;48.316;-1.050;2023-05-28T07:36:54;9.00;;;4.43;;
18568;SDS011;14780;48.316;-1.050;2023-05-28T07:39:39;6.07;;;4.10;;
18568;SDS011;14780;48.316;-1.050;2023-05-28T07:42:24;6.55;;;4.40;;
18568;SDS011;14780;48.316;-1.050;2023-05-28T07:45:08;7.72;;;4.40;;
18568;SDS011;14780;48.316;-1.050;2023-05-28T07:47:53;8.75;;;4.85;;
18568;SDS011;14780;48.316;-1.050;2023-05-28T07:50:38;9.13;;;5.45;;
18568;SDS011;14780;48.316;-1.050;2023-05-28T07:53:24;10.38;;;5.22;;
18568;SDS011;14780;48.316;-1.050;2023-05-28T07:56:09;7.63;;;4.88;;
18568;SDS011;14780;48.316;-1.050;2023-05-28T07:58:55;11.43;;;5.28;;
18568;SDS011;14780;48.316;-1.050;2023-05-28T08:01:40;11.73;;;4.97;;
18568;SDS011;14780;48.316;-1.050;2023-05-28T08:04:25;10.57;;;5.43;;
18568;SDS011;14780;48.316;-1.050;2023-05-28T08:07:09;9.25;;;4.93;;
18568;SDS011;14780;48.316;-1.050;2023-05-28T08:09:56;10.77;;;5.75;;
18568;SDS011;14780;48.316;-1.050;2023-05-28T08:12:40;10.85;;;5.40;;
18568;SDS011;14780;48.316;-1.050;2023-05-28T08:15:25;8.85;;;5.13;;
18568;SDS011;14780;48.316;-1.050;2023-05-28T08:18:09;7.63;;;4.90;;
18568;SDS011;14780;48.316;-1.050;2023-05-28T08:20:54;10.80;;;5.00;;
18568;SDS011;14780;48.316;-1.050;2023-05-28T08:23:39;10.65;;;5.75;;
18568;SDS011;14780;48.316;-1.050;2023-05-28T08:26:23;10.43;;;4.80;;
18568;SDS011;14780;48.316;-1.050;2023-05-28T08:29:09;8.68;;;5.10;;
18568;SDS011;14780;48.316;-1.050;2023-05-28T08:31:54;11.05;;;5.40;;
18568;SDS011;14780;48.316;-1.050;2023-05-28T08:34:41;10.35;;;5.45;;
18568;SDS011;14780;48.316;-1.050;2023-05-28T08:37:25;9.32;;;5.30;;
18568;SDS011;14780;48.316;-1.050;2023-05-28T08:40:10;10.02;;;5.45;;
18568;SDS011;14780;48.316;-1.050;2023-05-28T08:42:57;8.65;;;5.30;;
18568;SDS011;14780;48.316;-1.050;2023-05-28T08:45:41;9.50;;;4.60;;
18568;SDS011;14780;48.316;-1.050;2023-05-28T08:48:26;9.60;;;4.57;;
18568;SDS011;14780;48.316;-1.050;2023-05-28T08:51:16;9.68;;;5.20;;
18568;SDS011;14780;48.316;-1.050;2023-05-28T08:54:04;9.77;;;4.65;;
18568;SDS011;14780;48.316;-1.050;2023-05-28T08:56:49;9.57;;;5.32;;
18568;SDS011;14780;48.316;-1.050;2023-05-28T08:59:34;10.25;;;4.97;;
18568;SDS011;14780;48.316;-1.050;2023-05-28T09:02:22;10.07;;;5.32;;
18568;SDS011;14780;48.316;-1.050;2023-05-28T09:05:09;9.95;;;4.75;;
18568;SDS011;14780;48.316;-1.050;2023-05-28T09:07:54;11.25;;;5.43;;
18568;SDS011;14780;48.316;-1.050;2023-05-28T09:10:39;12.93;;;4.82;;
18568;SDS011;14780;48.316;-1.050;2023-05-28T09:13:25;13.00;;;5.63;;
18568;SDS011;14780;48.316;-1.050;2023-05-28T09:16:10;14.82;;;5.60;;
18568;SDS011;14780;48.316;-1.050;2023-05-28T09:19:02;12.75;;;5.68;;
18568;SDS011;14780;48.316;-1.050;2023-05-28T09:21:55;12.82;;;6.07;;
18568;SDS011;14780;48.316;-1.050;2023-05-28T09:24:41;12.20;;;6.18;;
18568;SDS011;14780;48.316;-1.050;2023-05-28T09:27:26;10.90;;;6.22;;
18568;SDS011;14780;48.316;-1.050;2023-05-28T09:30:11;12.77;;;5.85;;
18568;SDS011;14780;48.316;-1.050;2023-05-28T09:33:06;11.07;;;5.72;;
18568;SDS011;14780;48.316;-1.050;2023-05-28T09:35:59;14.95;;;6.10;;
18568;SDS011;14780;48.316;-1.050;2023-05-28T09:38:44;13.55;;;5.90;;
18568;SDS011;14780;48.316;-1.050;2023-05-28T09:41:30;13.73;;;5.88;;
18568;SDS011;14780;48.316;-1.050;2023-05-28T09:44:29;11.02;;;5.72;;
18568;SDS011;14780;48.316;-1.050;2023-05-28T09:47:16;10.07;;;6.07;;
18568;SDS011;14780;48.316;-1.050;2023-05-28T09:50:01;12.13;;;6.25;;
18568;SDS011;14780;48.316;-1.050;2023-05-28T09:52:47;12.85;;;6.30;;
18568;SDS011;14780;48.316;-1.050;2023-05-28T09:55:32;12.73;;;6.03;;
18568;SDS011;14780;48.316;-1.050;2023-05-28T09:58:19;11.70;;;5.80;;
18568;SDS011;14780;48.316;-1.050;2023-05-28T10:01:13;15.23;;;6.35;;
18568;SDS011;14780;48.316;-1.050;2023-05-28T10:04:09;11.77;;;6.15;;
18568;SDS011;14780;48.316;-1.050;2023-05-28T10:06:57;11.63;;;6.05;;
18568;SDS011;14780;48.316;-1.050;2023-05-28T10:09:42;9.95;;;5.93;;
18568;SDS011;14780;48.316;-1.050;2023-05-28T10:12:28;10.13;;;6.13;;
18568;SDS011;14780;48.316;-1.050;2023-05-28T10:15:14;11.63;;;6.28;;
18568;SDS011;14780;48.316;-1.050;2023-05-28T10:18:00;9.30;;;6.10;;
18568;SDS011;14780;48.316;-1.050;2023-05-28T10:20:46;11.18;;;5.90;;
18568;SDS011;14780;48.316;-1.050;2023-05-28T10:23:31;10.82;;;6.13;;
18568;SDS011;14780;48.316;-1.050;2023-05-28T10:26:17;12.18;;;6.20;;
18568;SDS011;14780;48.316;-1.050;2023-05-28T10:29:04;15.10;;;6.13;;
18568;SDS011;14780;48.316;-1.050;2023-05-28T10:32:00;11.68;;;5.82;;
18568;SDS011;14780;48.316;-1.050;2023-05-28T10:34:48;10.13;;;5.63;;
18568;SDS011;14780;48.316;-1.050;2023-05-28T10:37:33;14.38;;;6.53;;
18568;SDS011;14780;48.316;-1.050;2023-05-28T10:40:22;13.82;;;6.13;;
18568;SDS011;14780;48.316;-1.050;2023-05-28T10:49:18;12.75;;;6.35;;
18568;SDS011;14780;48.316;-1.050;2023-05-28T10:52:04;14.77;;;5.75;;
18568;SDS011;14780;48.316;-1.050;2023-05-28T10:54:48;12.95;;;5.75;;
18568;SDS011;14780;48.316;-1.050;2023-05-28T10:57:46;9.95;;;6.07;;
18568;SDS011;14780;48.316;-1.050;2023-05-28T11:00:33;14.27;;;5.80;;
18568;SDS011;14780;48.316;-1.050;2023-05-28T11:03:47;15.38;;;5.63;;
18568;SDS011;14780;48.316;-1.050;2023-05-28T11:06:30;12.00;;;6.10;;
18568;SDS011;14780;48.316;-1.050;2023-05-28T11:09:15;12.27;;;5.40;;
18568;SDS011;14780;48.316;-1.050;2023-05-28T11:12:00;14.45;;;6.55;;
18568;SDS011;14780;48.316;-1.050;2023-05-28T11:14:45;16.52;;;6.57;;
18568;SDS011;14780;48.316;-1.050;2023-05-28T11:17:50;16.15;;;6.05;;
18568;SDS011;14780;48.316;-1.050;2023-05-28T11:20:35;10.07;;;6.30;;
18568;SDS011;14780;48.316;-1.050;2023-05-28T11:23:19;13.48;;;6.20;;
18568;SDS011;14780;48.316;-1.050;2023-05-28T11:26:05;12.10;;;5.78;;
18568;SDS011;14780;48.316;-1.050;2023-05-28T11:29:04;10.18;;;5.50;;
18568;SDS011;14780;48.316;-1.050;2023-05-28T11:31:49;12.50;;;5.55;;
18568;SDS011;14780;48.316;-1.050;2023-05-28T11:34:33;12.88;;;6.00;;
18568;SDS011;14780;48.316;-1.050;2023-05-28T11:37:22;10.35;;;6.05;;
18568;SDS011;14780;48.316;-1.050;2023-05-28T11:40:10;11.88;;;5.65;;
18568;SDS011;14780;48.316;-1.050;2023-05-28T11:42:57;12.23;;;5.43;;
18568;SDS011;14780;48.316;-1.050;2023-05-28T11:45:43;11.10;;;5.30;;
18568;SDS011;14780;48.316;-1.050;2023-05-28T11:48:28;10.82;;;5.07;;
18568;SDS011;14780;48.316;-1.050;2023-05-28T11:51:13;8.13;;;5.03;;
18568;SDS011;14780;48.316;-1.050;2023-05-28T11:53:58;12.63;;;5.20;;
18568;SDS011;14780;48.316;-1.050;2023-05-28T11:56:43;8.60;;;4.97;;
18568;SDS011;14780;48.316;-1.050;2023-05-28T11:59:31;8.52;;;5.13;;
18568;SDS011;14780;48.316;-1.050;2023-05-28T12:02:16;8.50;;;4.88;;
18568;SDS011;14780;48.316;-1.050;2023-05-28T12:05:02;8.02;;;4.95;;
18568;SDS011;14780;48.316;-1.050;2023-05-28T12:10:35;9.75;;;5.25;;
18568;SDS011;14780;48.316;-1.050;2023-05-28T12:13:20;7.07;;;4.65;;
18568;SDS011;14780;48.316;-1.050;2023-05-28T12:16:11;7.90;;;5.03;;
18568;SDS011;14780;48.316;-1.050;2023-05-28T12:21:44;8.77;;;4.93;;
18568;SDS011;14780;48.316;-1.050;2023-05-28T12:24:29;7.30;;;4.18;;
18568;SDS011;14780;48.316;-1.050;2023-05-28T12:27:14;9.65;;;4.68;;
18568;SDS011;14780;48.316;-1.050;2023-05-28T12:29:58;6.85;;;4.30;;
18568;SDS011;14780;48.316;-1.050;2023-05-28T12:32:43;9.23;;;4.88;;
18568;SDS011;14780;48.316;-1.050;2023-05-28T12:35:28;11.38;;;5.20;;
18568;SDS011;14780;48.316;-1.050;2023-05-28T12:38:13;10.55;;;6.13;;
18568;SDS011;14780;48.316;-1.050;2023-05-28T12:40:58;8.82;;;5.40;;
18568;SDS011;14780;48.316;-1.050;2023-05-28T12:43:43;10.55;;;5.68;;
18568;SDS011;14780;48.316;-1.050;2023-05-28T12:46:28;8.02;;;5.40;;
18568;SDS011;14780;48.316;-1.050;2023-05-28T12:49:12;8.57;;;5.45;;
18568;SDS011;14780;48.316;-1.050;2023-05-28T12:51:57;11.00;;;5.70;;
18568;SDS011;14780;48.316;-1.050;2023-05-28T12:54:41;8.85;;;4.65;;
18568;SDS011;14780;48.316;-1.050;2023-05-28T12:57:26;7.60;;;4.95;;
18568;SDS011;14780;48.316;-1.050;2023-05-28T13:00:11;8.85;;;5.03;;
18568;SDS011;14780;48.316;-1.050;2023-05-28T13:02:56;8.00;;;4.30;;
18568;SDS011;14780;48.316;-1.050;2023-05-28T13:05:41;7.60;;;4.75;;
18568;SDS011;14780;48.316;-1.050;2023-05-28T13:08:25;8.27;;;4.85;;
18568;SDS011;14780;48.316;-1.050;2023-05-28T13:11:10;8.43;;;5.03;;
18568;SDS011;14780;48.316;-1.050;2023-05-28T13:13:55;9.80;;;4.95;;
18568;SDS011;14780;48.316;-1.050;2023-05-28T13:16:40;5.45;;;4.05;;
18568;SDS011;14780;48.316;-1.050;2023-05-28T13:19:25;8.68;;;4.60;;
18568;SDS011;14780;48.316;-1.050;2023-05-28T13:22:10;7.50;;;4.82;;
18568;SDS011;14780;48.316;-1.050;2023-05-28T13:24:56;10.10;;;4.70;;
18568;SDS011;14780;48.316;-1.050;2023-05-28T13:27:41;11.00;;;4.40;;
18568;SDS011;14780;48.316;-1.050;2023-05-28T13:30:26;10.27;;;4.53;;
18568;SDS011;14780;48.316;-1.050;2023-05-28T13:33:10;8.57;;;4.70;;
18568;SDS011;14780;48.316;-1.050;2023-05-28T13:35:55;6.25;;;4.53;;
18568;SDS011;14780;48.316;-1.050;2023-05-28T13:38:43;8.80;;;5.05;;
18568;SDS011;14780;48.316;-1.050;2023-05-28T13:44:17;8.75;;;5.30;;
18568;SDS011;14780;48.316;-1.050;2023-05-28T13:47:02;8.98;;;4.75;;
18568;SDS011;14780;48.316;-1.050;2023-05-28T13:49:47;10.00;;;5.70;;
18568;SDS011;14780;48.316;-1.050;2023-05-28T13:52:32;9.70;;;5.13;;
18568;SDS011;14780;48.316;-1.050;2023-05-28T13:55:17;8.68;;;5.15;;
18568;SDS011;14780;48.316;-1.050;2023-05-28T13:58:01;10.90;;;5.60;;
18568;SDS011;14780;48.316;-1.050;2023-05-28T14:00:46;9.15;;;5.35;;
18568;SDS011;14780;48.316;-1.050;2023-05-28T14:03:30;8.32;;;4.60;;
18568;SDS011;14780;48.316;-1.050;2023-05-28T14:06:15;9.05;;;5.03;;
18568;SDS011;14780;48.316;-1.050;2023-05-28T14:09:00;10.18;;;4.90;;
18568;SDS011;14780;48.316;-1.050;2023-05-28T14:11:45;8.63;;;5.47;;
18568;SDS011;14780;48.316;-1.050;2023-05-28T14:14:30;7.88;;;4.88;;
18568;SDS011;14780;48.316;-1.050;2023-05-28T14:17:15;9.07;;;5.82;;
18568;SDS011;14780;48.316;-1.050;2023-05-28T14:19:59;8.05;;;5.22;;
18568;SDS011;14780;48.316;-1.050;2023-05-28T14:22:44;9.00;;;5.72;;
18568;SDS011;14780;48.316;-1.050;2023-05-28T14:25:29;8.88;;;5.22;;
18568;SDS011;14780;48.316;-1.050;2023-05-28T14:28:14;9.00;;;5.50;;
18568;SDS011;14780;48.316;-1.050;2023-05-28T14:30:58;10.65;;;5.63;;
18568;SDS011;14780;48.316;-1.050;2023-05-28T14:33:43;7.85;;;4.90;;
18568;SDS011;14780;48.316;-1.050;2023-05-28T14:36:28;9.70;;;5.10;;
18568;SDS011;14780;48.316;-1.050;2023-05-28T14:39:13;9.20;;;5.22;;
18568;SDS011;14780;48.316;-1.050;2023-05-28T14:41:59;11.10;;;5.50;;
18568;SDS011;14780;48.316;-1.050;2023-05-28T14:44:43;11.30;;;5.90;;
18568;SDS011;14780;48.316;-1.050;2023-05-28T14:47:29;13.35;;;5.85;;
18568;SDS011;14780;48.316;-1.050;2023-05-28T14:50:14;9.25;;;5.43;;
18568;SDS011;14780;48.316;-1.050;2023-05-28T14:52:59;11.13;;;5.70;;
18568;SDS011;14780;48.316;-1.050;2023-05-28T14:55:43;13.30;;;6.63;;
18568;SDS011;14780;48.316;-1.050;2023-05-28T14:58:29;9.07;;;5.70;;
18568;SDS011;14780;48.316;-1.050;2023-05-28T15:01:14;10.07;;;6.03;;
18568;SDS011;14780;48.316;-1.050;2023-05-28T15:03:58;10.13;;;6.00;;
18568;SDS011;14780;48.316;-1.050;2023-05-28T15:06:43;12.02;;;6.28;;
18568;SDS011;14780;48.316;-1.050;2023-05-28T15:09:28;11.52;;;6.78;;
18568;SDS011;14780;48.316;-1.050;2023-05-28T15:12:13;8.32;;;5.13;;
18568;SDS011;14780;48.316;-1.050;2023-05-28T15:14:58;8.85;;;6.10;;
18568;SDS011;14780;48.316;-1.050;2023-05-28T15:17:43;11.57;;;6.35;;
18568;SDS011;14780;48.316;-1.050;2023-05-28T15:20:28;10.02;;;6.47;;
18568;SDS011;14780;48.316;-1.050;2023-05-28T15:23:12;10.52;;;6.32;;
18568;SDS011;14780;48.316;-1.050;2023-05-28T15:25:57;13.32;;;6.32;;
18568;SDS011;14780;48.316;-1.050;2023-05-28T15:28:42;9.55;;;5.53;;
18568;SDS011;14780;48.316;-1.050;2023-05-28T15:31:27;10.63;;;6.07;;
18568;SDS011;14780;48.316;-1.050;2023-05-28T15:34:13;16.90;;;6.15;;
18568;SDS011;14780;48.316;-1.050;2023-05-28T15:36:59;10.38;;;6.43;;
18568;SDS011;14780;48.316;-1.050;2023-05-28T15:39:44;9.63;;;5.57;;
18568;SDS011;14780;48.316;-1.050;2023-05-28T15:42:29;13.98;;;6.25;;
18568;SDS011;14780;48.316;-1.050;2023-05-28T15:45:18;11.75;;;6.30;;
18568;SDS011;14780;48.316;-1.050;2023-05-28T15:48:03;14.43;;;6.00;;
18568;SDS011;14780;48.316;-1.050;2023-05-28T15:50:47;10.25;;;6.18;;
18568;SDS011;14780;48.316;-1.050;2023-05-28T15:53:32;8.77;;;5.47;;
18568;SDS011;14780;48.316;-1.050;2023-05-28T15:56:17;12.38;;;6.57;;
18568;SDS011;14780;48.316;-1.050;2023-05-28T15:59:02;12.73;;;6.38;;
18568;SDS011;14780;48.316;-1.050;2023-05-28T16:01:48;11.13;;;6.50;;
18568;SDS011;14780;48.316;-1.050;2023-05-28T16:04:37;9.90;;;5.45;;
18568;SDS011;14780;48.316;-1.050;2023-05-28T16:07:22;10.02;;;6.00;;
18568;SDS011;14780;48.316;-1.050;2023-05-28T16:10:07;10.88;;;6.13;;
18568;SDS011;14780;48.316;-1.050;2023-05-28T16:12:52;10.85;;;6.57;;
18568;SDS011;14780;48.316;-1.050;2023-05-28T16:15:42;8.55;;;5.97;;
18568;SDS011;14780;48.316;-1.050;2023-05-28T16:18:27;13.00;;;6.70;;
18568;SDS011;14780;48.316;-1.050;2023-05-28T16:21:13;9.50;;;5.93;;
18568;SDS011;14780;48.316;-1.050;2023-05-28T16:23:58;9.27;;;5.90;;
18568;SDS011;14780;48.316;-1.050;2023-05-28T16:26:44;11.00;;;6.55;;
18568;SDS011;14780;48.316;-1.050;2023-05-28T16:29:34;9.93;;;6.28;;
18568;SDS011;14780;48.316;-1.050;2023-05-28T16:32:20;10.90;;;6.63;;